sensor_id;sensor_type;location;lat;lon;timestamp;temperature;humidity
73643;DHT22;61938;48.652;9.292;2023-08-21T00:01:06;21.40;99.90
73643;DHT22;61938;48.652;9.292;2023-08-21T00:03:31;21.30;99.90
73643;DHT22;61938;48.652;9.292;2023-08-21T00:05:57;21.10;99.90
73643;DHT22;61938;48.652;9.292;2023-08-21T00:08:22;21.30;99.90
73643;DHT22;61938;48.652;9.292;2023-08-21T00:10:48;21.40;99.90
73643;DHT22;61938;48.652;9.292;2023-08-21T00:13:13;21.30;99.90
73643;DHT22;61938;48.652;9.292;2023-08-21T00:15:39;21.30;99.90
73643;DHT22;61938;48.652;9.292;2023-08-21T00:18:05;21.20;99.90
73643;DHT22;61938;48.652;9.292;2023-08-21T00:20:31;21.20;99.90
73643;DHT22;61938;48.652;9.292;2023-08-21T00:22:56;21.20;99.90
73643;DHT22;61938;48.652;9.292;2023-08-21T00:25:22;21.20;99.90
73643;DHT22;61938;48.652;9.292;2023-08-21T00:27:48;21.20;99.90
73643;DHT22;61938;48.652;9.292;2023-08-21T00:30:13;21.10;99.90
73643;DHT22;61938;48.652;9.292;2023-08-21T00:32:42;21.10;99.90
73643;DHT22;61938;48.652;9.292;2023-08-21T00:35:07;21.20;99.90
73643;DHT22;61938;48.652;9.292;2023-08-21T00:37:33;21.20;99.90
73643;DHT22;61938;48.652;9.292;2023-08-21T00:39:59;21.20;99.90
73643;DHT22;61938;48.652;9.292;2023-08-21T00:42:24;21.20;99.90
73643;DHT22;61938;48.652;9.292;2023-08-21T00:44:50;21.10;99.90
73643;DHT22;61938;48.652;9.292;2023-08-21T00:47:15;21.10;99.90
73643;DHT22;61938;48.652;9.292;2023-08-21T00:49:41;21.10;99.90
73643;DHT22;61938;48.652;9.292;2023-08-21T00:52:10;21.10;99.90
73643;DHT22;61938;48.652;9.292;2023-08-21T00:54:37;21.10;99.90
73643;DHT22;61938;48.652;9.292;2023-08-21T00:57:03;21.00;99.90
73643;DHT22;61938;48.652;9.292;2023-08-21T00:59:29;20.90;99.90
73643;DHT22;61938;48.652;9.292;2023-08-21T01:01:55;20.90;99.90
73643;DHT22;61938;48.652;9.292;2023-08-21T01:04:21;21.00;99.90
73643;DHT22;61938;48.652;9.292;2023-08-21T01:06:48;21.00;99.90
73643;DHT22;61938;48.652;9.292;2023-08-21T01:09:49;21.00;99.90
73643;DHT22;61938;48.652;9.292;2023-08-21T01:12:33;21.00;99.90
73643;DHT22;61938;48.652;9.292;2023-08-21T01:15:06;20.90;99.90
73643;DHT22;61938;48.652;9.292;2023-08-21T01:17:38;20.90;99.90
73643;DHT22;61938;48.652;9.292;2023-08-21T01:20:07;20.80;99.90
73643;DHT22;61938;48.652;9.292;2023-08-21T01:22:40;20.70;99.90
73643;DHT22;61938;48.652;9.292;2023-08-21T01:25:06;20.70;99.90
73643;DHT22;61938;48.652;9.292;2023-08-21T01:27:33;20.70;99.90
73643;DHT22;61938;48.652;9.292;2023-08-21T01:30:00;20.70;99.90
73643;DHT22;61938;48.652;9.292;2023-08-21T01:34:53;20.70;99.90
73643;DHT22;61938;48.652;9.292;2023-08-21T01:37:20;20.70;99.90
73643;DHT22;61938;48.652;9.292;2023-08-21T01:39:45;20.70;99.90
73643;DHT22;61938;48.652;9.292;2023-08-21T01:42:11;20.60;99.90
73643;DHT22;61938;48.652;9.292;2023-08-21T01:44:36;20.60;99.90
73643;DHT22;61938;48.652;9.292;2023-08-21T01:47:02;20.50;99.90
73643;DHT22;61938;48.652;9.292;2023-08-21T01:49:27;20.60;99.90
73643;DHT22;61938;48.652;9.292;2023-08-21T01:51:53;20.60;99.90
73643;DHT22;61938;48.652;9.292;2023-08-21T01:54:18;20.50;99.90
73643;DHT22;61938;48.652;9.292;2023-08-21T01:56:44;20.50;99.90
73643;DHT22;61938;48.652;9.292;2023-08-21T01:59:09;20.50;99.90
73643;DHT22;61938;48.652;9.292;2023-08-21T02:01:35;20.50;99.90
73643;DHT22;61938;48.652;9.292;2023-08-21T02:04:00;20.40;99.90
73643;DHT22;61938;48.652;9.292;2023-08-21T02:06:26;20.40;99.90
73643;DHT22;61938;48.652;9.292;2023-08-21T02:08:51;20.30;99.90
73643;DHT22;61938;48.652;9.292;2023-08-21T02:11:17;20.30;99.90
73643;DHT22;61938;48.652;9.292;2023-08-21T02:13:43;20.30;99.90
73643;DHT22;61938;48.652;9.292;2023-08-21T02:16:08;20.30;99.90
73643;DHT22;61938;48.652;9.292;2023-08-21T02:18:34;20.30;99.90
73643;DHT22;61938;48.652;9.292;2023-08-21T02:21:02;20.20;99.90
73643;DHT22;61938;48.652;9.292;2023-08-21T02:23:27;20.20;99.90
73643;DHT22;61938;48.652;9.292;2023-08-21T02:25:54;20.20;99.90
73643;DHT22;61938;48.652;9.292;2023-08-21T02:28:20;20.20;99.90
73643;DHT22;61938;48.652;9.292;2023-08-21T02:30:45;20.20;99.90
73643;DHT22;61938;48.652;9.292;2023-08-21T02:33:11;20.20;99.90
73643;DHT22;61938;48.652;9.292;2023-08-21T02:35:36;20.20;99.90
73643;DHT22;61938;48.652;9.292;2023-08-21T02:38:02;20.10;99.90
73643;DHT22;61938;48.652;9.292;2023-08-21T02:40:28;20.10;99.90
73643;DHT22;61938;48.652;9.292;2023-08-21T02:42:53;20.10;99.90
73643;DHT22;61938;48.652;9.292;2023-08-21T02:45:19;20.10;99.90
73643;DHT22;61938;48.652;9.292;2023-08-21T02:47:45;20.10;99.90
73643;DHT22;61938;48.652;9.292;2023-08-21T02:50:10;20.10;99.90
73643;DHT22;61938;48.652;9.292;2023-08-21T02:52:36;20.30;99.90
73643;DHT22;61938;48.652;9.292;2023-08-21T02:55:03;20.10;99.90
73643;DHT22;61938;48.652;9.292;2023-08-21T02:57:29;20.10;99.90
73643;DHT22;61938;48.652;9.292;2023-08-21T02:59:55;20.10;99.90
73643;DHT22;61938;48.652;9.292;2023-08-21T03:02:21;20.10;99.90
73643;DHT22;61938;48.652;9.292;2023-08-21T03:04:47;20.10;99.90
73643;DHT22;61938;48.652;9.292;2023-08-21T03:07:13;20.10;99.90
73643;DHT22;61938;48.652;9.292;2023-08-21T03:09:39;20.40;99.90
73643;DHT22;61938;48.652;9.292;2023-08-21T03:12:06;20.10;99.90
73643;DHT22;61938;48.652;9.292;2023-08-21T03:14:31;20.00;99.90
73643;DHT22;61938;48.652;9.292;2023-08-21T03:16:57;20.00;99.90
73643;DHT22;61938;48.652;9.292;2023-08-21T03:19:22;19.90;99.90
73643;DHT22;61938;48.652;9.292;2023-08-21T03:21:48;19.90;99.90
73643;DHT22;61938;48.652;9.292;2023-08-21T03:24:13;19.90;99.90
73643;DHT22;61938;48.652;9.292;2023-08-21T03:26:39;19.90;99.90
73643;DHT22;61938;48.652;9.292;2023-08-21T03:29:04;19.90;99.90
73643;DHT22;61938;48.652;9.292;2023-08-21T03:31:30;19.70;99.90
73643;DHT22;61938;48.652;9.292;2023-08-21T03:33:56;19.80;99.90
73643;DHT22;61938;48.652;9.292;2023-08-21T03:36:22;19.90;99.90
73643;DHT22;61938;48.652;9.292;2023-08-21T03:38:59;19.80;99.90
73643;DHT22;61938;48.652;9.292;2023-08-21T03:41:25;19.80;99.90
73643;DHT22;61938;48.652;9.292;2023-08-21T03:43:50;19.80;99.90
73643;DHT22;61938;48.652;9.292;2023-08-21T03:46:16;19.80;99.90
73643;DHT22;61938;48.652;9.292;2023-08-21T03:48:41;19.80;99.90
73643;DHT22;61938;48.652;9.292;2023-08-21T03:51:07;19.80;99.90
73643;DHT22;61938;48.652;9.292;2023-08-21T03:53:32;19.80;99.90
73643;DHT22;61938;48.652;9.292;2023-08-21T03:55:58;19.70;99.90
73643;DHT22;61938;48.652;9.292;2023-08-21T03:58:23;19.70;99.90
73643;DHT22;61938;48.652;9.292;2023-08-21T04:00:51;19.70;99.90
73643;DHT22;61938;48.652;9.292;2023-08-21T04:03:16;19.70;99.90
73643;DHT22;61938;48.652;9.292;2023-08-21T04:05:42;19.60;99.90
73643;DHT22;61938;48.652;9.292;2023-08-21T04:08:07;19.60;99.90
73643;DHT22;61938;48.652;9.292;2023-08-21T04:10:33;18.80;99.90
73643;DHT22;61938;48.652;9.292;2023-08-21T04:12:58;19.60;99.90
73643;DHT22;61938;48.652;9.292;2023-08-21T04:15:25;19.60;99.90
73643;DHT22;61938;48.652;9.292;2023-08-21T04:17:50;19.60;99.90
73643;DHT22;61938;48.652;9.292;2023-08-21T04:20:16;19.60;99.90
73643;DHT22;61938;48.652;9.292;2023-08-21T04:22:41;19.60;99.90
73643;DHT22;61938;48.652;9.292;2023-08-21T04:25:07;19.60;99.90
73643;DHT22;61938;48.652;9.292;2023-08-21T04:27:32;19.60;99.90
73643;DHT22;61938;48.652;9.292;2023-08-21T04:29:58;19.60;99.90
73643;DHT22;61938;48.652;9.292;2023-08-21T04:32:24;19.60;99.90
73643;DHT22;61938;48.652;9.292;2023-08-21T04:34:50;19.60;99.90
73643;DHT22;61938;48.652;9.292;2023-08-21T04:37:15;19.60;99.90
73643;DHT22;61938;48.652;9.292;2023-08-21T04:39:41;19.60;99.90
73643;DHT22;61938;48.652;9.292;2023-08-21T04:42:07;19.50;99.90
73643;DHT22;61938;48.652;9.292;2023-08-21T04:44:32;19.50;99.90
73643;DHT22;61938;48.652;9.292;2023-08-21T04:46:58;19.50;99.90
73643;DHT22;61938;48.652;9.292;2023-08-21T04:49:43;19.50;99.90
73643;DHT22;61938;48.652;9.292;2023-08-21T04:52:08;19.50;99.90
73643;DHT22;61938;48.652;9.292;2023-08-21T04:54:34;19.50;99.90
73643;DHT22;61938;48.652;9.292;2023-08-21T04:56:59;19.60;99.90
73643;DHT22;61938;48.652;9.292;2023-08-21T04:59:25;19.60;99.90
73643;DHT22;61938;48.652;9.292;2023-08-21T05:01:50;19.50;99.90
73643;DHT22;61938;48.652;9.292;2023-08-21T05:04:16;19.60;99.90
73643;DHT22;61938;48.652;9.292;2023-08-21T05:06:41;19.60;99.90
73643;DHT22;61938;48.652;9.292;2023-08-21T05:09:07;19.70;99.90
73643;DHT22;61938;48.652;9.292;2023-08-21T05:11:32;19.70;99.90
73643;DHT22;61938;48.652;9.292;2023-08-21T05:13:58;19.80;99.90
73643;DHT22;61938;48.652;9.292;2023-08-21T05:16:23;19.80;99.90
73643;DHT22;61938;48.652;9.292;2023-08-21T05:18:49;19.80;99.90
73643;DHT22;61938;48.652;9.292;2023-08-21T05:21:14;19.90;99.90
73643;DHT22;61938;48.652;9.292;2023-08-21T05:23:39;20.00;99.90
73643;DHT22;61938;48.652;9.292;2023-08-21T05:26:05;20.10;99.90
73643;DHT22;61938;48.652;9.292;2023-08-21T05:28:31;20.20;99.90
73643;DHT22;61938;48.652;9.292;2023-08-21T05:30:57;20.20;99.90
73643;DHT22;61938;48.652;9.292;2023-08-21T05:33:22;20.30;99.90
73643;DHT22;61938;48.652;9.292;2023-08-21T05:35:48;20.40;99.90
73643;DHT22;61938;48.652;9.292;2023-08-21T05:38:13;20.40;99.90
73643;DHT22;61938;48.652;9.292;2023-08-21T05:40:40;20.50;99.90
73643;DHT22;61938;48.652;9.292;2023-08-21T05:43:06;20.60;99.90
73643;DHT22;61938;48.652;9.292;2023-08-21T05:45:32;20.70;99.90
73643;DHT22;61938;48.652;9.292;2023-08-21T05:47:57;20.70;99.90
73643;DHT22;61938;48.652;9.292;2023-08-21T05:50:23;20.70;99.90
73643;DHT22;61938;48.652;9.292;2023-08-21T05:52:48;20.90;99.90
73643;DHT22;61938;48.652;9.292;2023-08-21T05:55:14;21.00;99.90
73643;DHT22;61938;48.652;9.292;2023-08-21T05:57:39;21.10;99.90
73643;DHT22;61938;48.652;9.292;2023-08-21T06:00:05;21.20;99.90
73643;DHT22;61938;48.652;9.292;2023-08-21T06:02:34;21.20;99.90
73643;DHT22;61938;48.652;9.292;2023-08-21T06:04:59;21.40;99.90
73643;DHT22;61938;48.652;9.292;2023-08-21T06:07:25;21.50;99.90
73643;DHT22;61938;48.652;9.292;2023-08-21T06:09:50;21.60;99.90
73643;DHT22;61938;48.652;9.292;2023-08-21T06:12:16;21.40;99.90
73643;DHT22;61938;48.652;9.292;2023-08-21T06:14:41;21.80;99.90
73643;DHT22;61938;48.652;9.292;2023-08-21T06:17:08;21.90;99.90
73643;DHT22;61938;48.652;9.292;2023-08-21T06:19:34;22.00;99.90
73643;DHT22;61938;48.652;9.292;2023-08-21T06:21:59;22.00;99.90
73643;DHT22;61938;48.652;9.292;2023-08-21T06:24:25;22.10;99.90
73643;DHT22;61938;48.652;9.292;2023-08-21T06:26:51;22.40;99.90
73643;DHT22;61938;48.652;9.292;2023-08-21T06:29:17;22.50;99.90
73643;DHT22;61938;48.652;9.292;2023-08-21T06:31:44;22.50;99.90
73643;DHT22;61938;48.652;9.292;2023-08-21T06:34:09;22.60;99.90
73643;DHT22;61938;48.652;9.292;2023-08-21T06:36:34;22.70;99.90
73643;DHT22;61938;48.652;9.292;2023-08-21T06:39:00;22.90;99.90
73643;DHT22;61938;48.652;9.292;2023-08-21T06:41:25;23.00;99.90
73643;DHT22;61938;48.652;9.292;2023-08-21T06:43:51;23.10;99.90
73643;DHT22;61938;48.652;9.292;2023-08-21T06:46:16;23.40;99.90
73643;DHT22;61938;48.652;9.292;2023-08-21T06:48:42;23.70;99.90
73643;DHT22;61938;48.652;9.292;2023-08-21T06:51:08;23.90;99.90
73643;DHT22;61938;48.652;9.292;2023-08-21T06:53:34;23.90;99.90
73643;DHT22;61938;48.652;9.292;2023-08-21T06:56:00;23.90;99.90
73643;DHT22;61938;48.652;9.292;2023-08-21T06:58:25;24.00;99.90
73643;DHT22;61938;48.652;9.292;2023-08-21T07:00:53;24.10;99.90
73643;DHT22;61938;48.652;9.292;2023-08-21T07:03:18;24.30;99.90
73643;DHT22;61938;48.652;9.292;2023-08-21T07:05:46;24.40;99.90
73643;DHT22;61938;48.652;9.292;2023-08-21T07:08:13;24.60;99.90
73643;DHT22;61938;48.652;9.292;2023-08-21T07:10:38;24.70;99.90
73643;DHT22;61938;48.652;9.292;2023-08-21T07:13:04;24.80;99.90
73643;DHT22;61938;48.652;9.292;2023-08-21T07:15:30;25.20;99.90
73643;DHT22;61938;48.652;9.292;2023-08-21T07:17:55;25.30;99.90
73643;DHT22;61938;48.652;9.292;2023-08-21T07:20:21;25.40;99.90
73643;DHT22;61938;48.652;9.292;2023-08-21T07:22:47;25.40;99.90
73643;DHT22;61938;48.652;9.292;2023-08-21T07:25:13;25.50;99.90
73643;DHT22;61938;48.652;9.292;2023-08-21T07:27:38;25.50;99.90
73643;DHT22;61938;48.652;9.292;2023-08-21T07:30:05;25.50;99.90
73643;DHT22;61938;48.652;9.292;2023-08-21T07:32:31;25.90;99.90
73643;DHT22;61938;48.652;9.292;2023-08-21T07:34:56;26.00;99.90
73643;DHT22;61938;48.652;9.292;2023-08-21T07:37:22;26.20;99.90
73643;DHT22;61938;48.652;9.292;2023-08-21T07:39:47;26.40;99.90
73643;DHT22;61938;48.652;9.292;2023-08-21T07:42:13;26.50;99.90
73643;DHT22;61938;48.652;9.292;2023-08-21T07:44:39;26.40;99.90
73643;DHT22;61938;48.652;9.292;2023-08-21T07:47:05;26.50;99.90
73643;DHT22;61938;48.652;9.292;2023-08-21T07:49:31;26.50;99.90
73643;DHT22;61938;48.652;9.292;2023-08-21T07:51:57;26.50;99.90
73643;DHT22;61938;48.652;9.292;2023-08-21T07:54:22;26.60;99.90
73643;DHT22;61938;48.652;9.292;2023-08-21T07:56:49;26.80;99.90
73643;DHT22;61938;48.652;9.292;2023-08-21T07:59:15;27.00;99.90
73643;DHT22;61938;48.652;9.292;2023-08-21T08:01:41;27.30;99.90
73643;DHT22;61938;48.652;9.292;2023-08-21T08:04:06;27.10;99.90
73643;DHT22;61938;48.652;9.292;2023-08-21T08:06:32;27.30;99.90
73643;DHT22;61938;48.652;9.292;2023-08-21T08:08:58;27.40;99.90
73643;DHT22;61938;48.652;9.292;2023-08-21T08:11:23;27.60;99.90
73643;DHT22;61938;48.652;9.292;2023-08-21T08:13:49;27.60;99.90
73643;DHT22;61938;48.652;9.292;2023-08-21T08:16:15;28.10;99.90
73643;DHT22;61938;48.652;9.292;2023-08-21T08:18:42;28.10;99.90
73643;DHT22;61938;48.652;9.292;2023-08-21T08:21:07;28.20;99.90
73643;DHT22;61938;48.652;9.292;2023-08-21T08:23:32;28.30;99.90
73643;DHT22;61938;48.652;9.292;2023-08-21T08:25:58;28.40;99.90
73643;DHT22;61938;48.652;9.292;2023-08-21T08:28:23;28.40;99.90
73643;DHT22;61938;48.652;9.292;2023-08-21T08:30:50;28.50;99.90
73643;DHT22;61938;48.652;9.292;2023-08-21T08:33:15;28.50;99.90
73643;DHT22;61938;48.652;9.292;2023-08-21T08:35:41;28.50;99.90
73643;DHT22;61938;48.652;9.292;2023-08-21T08:38:06;28.60;99.90
73643;DHT22;61938;48.652;9.292;2023-08-21T08:40:33;28.70;99.90
73643;DHT22;61938;48.652;9.292;2023-08-21T08:43:02;29.00;99.90
73643;DHT22;61938;48.652;9.292;2023-08-21T08:45:29;29.10;99.90
73643;DHT22;61938;48.652;9.292;2023-08-21T08:48:00;29.40;99.90
73643;DHT22;61938;48.652;9.292;2023-08-21T08:50:29;29.60;99.90
73643;DHT22;61938;48.652;9.292;2023-08-21T08:52:57;29.50;99.90
73643;DHT22;61938;48.652;9.292;2023-08-21T08:55:23;29.40;99.90
73643;DHT22;61938;48.652;9.292;2023-08-21T08:57:49;29.20;99.90
73643;DHT22;61938;48.652;9.292;2023-08-21T09:00:14;29.10;99.90
73643;DHT22;61938;48.652;9.292;2023-08-21T09:02:40;29.30;99.90
73643;DHT22;61938;48.652;9.292;2023-08-21T09:05:06;29.60;99.90
73643;DHT22;61938;48.652;9.292;2023-08-21T09:07:33;29.90;99.90
73643;DHT22;61938;48.652;9.292;2023-08-21T09:10:00;30.20;99.90
73643;DHT22;61938;48.652;9.292;2023-08-21T09:12:26;30.40;99.90
73643;DHT22;61938;48.652;9.292;2023-08-21T09:14:51;30.70;99.90
73643;DHT22;61938;48.652;9.292;2023-08-21T09:17:17;30.70;99.90
73643;DHT22;61938;48.652;9.292;2023-08-21T09:19:43;30.70;99.90
73643;DHT22;61938;48.652;9.292;2023-08-21T09:22:16;30.80;99.90
73643;DHT22;61938;48.652;9.292;2023-08-21T09:25:19;31.10;99.90
73643;DHT22;61938;48.652;9.292;2023-08-21T09:27:44;31.40;99.90
73643;DHT22;61938;48.652;9.292;2023-08-21T09:30:11;31.20;99.90
73643;DHT22;61938;48.652;9.292;2023-08-21T09:32:55;31.10;99.90
73643;DHT22;61938;48.652;9.292;2023-08-21T09:35:21;31.50;99.90
73643;DHT22;61938;48.652;9.292;2023-08-21T09:37:47;31.40;99.90
73643;DHT22;61938;48.652;9.292;2023-08-21T09:40:15;31.10;99.90
73643;DHT22;61938;48.652;9.292;2023-08-21T09:42:41;31.40;99.90
73643;DHT22;61938;48.652;9.292;2023-08-21T09:45:07;31.70;99.90
73643;DHT22;61938;48.652;9.292;2023-08-21T09:47:33;31.90;99.90
73643;DHT22;61938;48.652;9.292;2023-08-21T09:49:59;32.10;99.90
73643;DHT22;61938;48.652;9.292;2023-08-21T09:52:26;32.20;99.90
73643;DHT22;61938;48.652;9.292;2023-08-21T09:54:56;31.80;99.90
73643;DHT22;61938;48.652;9.292;2023-08-21T09:57:23;31.80;99.90
73643;DHT22;61938;48.652;9.292;2023-08-21T09:59:52;31.80;99.90
73643;DHT22;61938;48.652;9.292;2023-08-21T10:02:18;32.00;99.90
73643;DHT22;61938;48.652;9.292;2023-08-21T10:04:45;32.50;99.90
73643;DHT22;61938;48.652;9.292;2023-08-21T10:07:11;32.50;99.90
73643;DHT22;61938;48.652;9.292;2023-08-21T10:09:40;32.70;99.90
73643;DHT22;61938;48.652;9.292;2023-08-21T10:12:09;32.50;99.90
73643;DHT22;61938;48.652;9.292;2023-08-21T10:14:35;32.30;99.90
73643;DHT22;61938;48.652;9.292;2023-08-21T10:17:01;32.60;99.90
73643;DHT22;61938;48.652;9.292;2023-08-21T10:19:33;33.00;99.90
73643;DHT22;61938;48.652;9.292;2023-08-21T10:21:59;33.20;99.90
73643;DHT22;61938;48.652;9.292;2023-08-21T10:24:35;32.80;99.90
73643;DHT22;61938;48.652;9.292;2023-08-21T10:27:02;33.00;99.90
73643;DHT22;61938;48.652;9.292;2023-08-21T10:29:28;33.30;99.90
73643;DHT22;61938;48.652;9.292;2023-08-21T10:32:01;33.10;99.90
73643;DHT22;61938;48.652;9.292;2023-08-21T10:34:35;32.90;99.90
73643;DHT22;61938;48.652;9.292;2023-08-21T10:37:10;32.90;99.90
73643;DHT22;61938;48.652;9.292;2023-08-21T10:39:38;32.90;99.90
73643;DHT22;61938;48.652;9.292;2023-08-21T10:42:09;33.10;99.90
73643;DHT22;61938;48.652;9.292;2023-08-21T10:44:49;33.10;99.90
73643;DHT22;61938;48.652;9.292;2023-08-21T10:49:55;33.20;99.90
73643;DHT22;61938;48.652;9.292;2023-08-21T10:52:26;33.50;99.90
73643;DHT22;61938;48.652;9.292;2023-08-21T10:54:54;33.80;99.90
73643;DHT22;61938;48.652;9.292;2023-08-21T10:57:21;33.70;99.90
73643;DHT22;61938;48.652;9.292;2023-08-21T11:02:15;34.30;99.90
73643;DHT22;61938;48.652;9.292;2023-08-21T11:04:41;34.20;99.90
73643;DHT22;61938;48.652;9.292;2023-08-21T11:07:07;34.40;99.90
73643;DHT22;61938;48.652;9.292;2023-08-21T11:09:38;34.60;99.90
73643;DHT22;61938;48.652;9.292;2023-08-21T11:12:09;34.70;99.90
73643;DHT22;61938;48.652;9.292;2023-08-21T11:14:35;34.80;99.90
73643;DHT22;61938;48.652;9.292;2023-08-21T11:17:01;34.50;99.90
73643;DHT22;61938;48.652;9.292;2023-08-21T11:19:26;34.50;99.90
73643;DHT22;61938;48.652;9.292;2023-08-21T11:21:52;34.40;99.90
73643;DHT22;61938;48.652;9.292;2023-08-21T11:24:17;34.60;99.90
73643;DHT22;61938;48.652;9.292;2023-08-21T11:26:43;34.30;99.90
73643;DHT22;61938;48.652;9.292;2023-08-21T11:29:08;34.70;99.90
73643;DHT22;61938;48.652;9.292;2023-08-21T11:31:34;34.70;99.90
73643;DHT22;61938;48.652;9.292;2023-08-21T11:33:59;34.20;99.90
73643;DHT22;61938;48.652;9.292;2023-08-21T11:36:25;34.30;99.90
73643;DHT22;61938;48.652;9.292;2023-08-21T11:39:01;34.10;99.90
73643;DHT22;61938;48.652;9.292;2023-08-21T11:41:27;34.20;99.90
73643;DHT22;61938;48.652;9.292;2023-08-21T11:43:56;34.40;99.90
73643;DHT22;61938;48.652;9.292;2023-08-21T11:46:26;34.30;99.90
73643;DHT22;61938;48.652;9.292;2023-08-21T11:48:52;33.90;99.90
73643;DHT22;61938;48.652;9.292;2023-08-21T11:51:17;33.50;99.90
73643;DHT22;61938;48.652;9.292;2023-08-21T11:53:43;33.10;99.90
73643;DHT22;61938;48.652;9.292;2023-08-21T11:56:13;32.80;99.90
73643;DHT22;61938;48.652;9.292;2023-08-21T11:58:40;32.80;99.90
73643;DHT22;61938;48.652;9.292;2023-08-21T12:01:06;33.10;99.90
73643;DHT22;61938;48.652;9.292;2023-08-21T12:03:37;33.30;99.90
73643;DHT22;61938;48.652;9.292;2023-08-21T12:06:11;33.60;99.90
73643;DHT22;61938;48.652;9.292;2023-08-21T12:08:38;33.10;99.90
73643;DHT22;61938;48.652;9.292;2023-08-21T12:11:04;32.70;99.90
73643;DHT22;61938;48.652;9.292;2023-08-21T12:13:30;32.50;99.90
73643;DHT22;61938;48.652;9.292;2023-08-21T12:15:56;32.80;99.90
73643;DHT22;61938;48.652;9.292;2023-08-21T12:18:22;33.40;99.90
73643;DHT22;61938;48.652;9.292;2023-08-21T12:20:47;33.80;99.90
73643;DHT22;61938;48.652;9.292;2023-08-21T12:23:13;34.10;99.90
73643;DHT22;61938;48.652;9.292;2023-08-21T12:25:38;34.40;99.90
73643;DHT22;61938;48.652;9.292;2023-08-21T12:28:06;34.40;99.90
73643;DHT22;61938;48.652;9.292;2023-08-21T12:30:32;34.30;99.90
73643;DHT22;61938;48.652;9.292;2023-08-21T12:32:57;34.00;99.90
73643;DHT22;61938;48.652;9.292;2023-08-21T12:35:23;33.40;99.90
73643;DHT22;61938;48.652;9.292;2023-08-21T12:37:48;33.40;99.90
73643;DHT22;61938;48.652;9.292;2023-08-21T12:40:14;33.40;99.90
73643;DHT22;61938;48.652;9.292;2023-08-21T12:42:39;33.50;99.90
73643;DHT22;61938;48.652;9.292;2023-08-21T12:45:05;33.70;99.90
73643;DHT22;61938;48.652;9.292;2023-08-21T12:47:31;33.80;99.90
73643;DHT22;61938;48.652;9.292;2023-08-21T12:49:56;33.90;99.90
73643;DHT22;61938;48.652;9.292;2023-08-21T12:52:22;34.00;99.90
73643;DHT22;61938;48.652;9.292;2023-08-21T12:54:47;34.20;99.90
73643;DHT22;61938;48.652;9.292;2023-08-21T12:57:13;34.10;99.90
73643;DHT22;61938;48.652;9.292;2023-08-21T12:59:39;34.30;99.90
73643;DHT22;61938;48.652;9.292;2023-08-21T13:02:04;34.20;99.90
73643;DHT22;61938;48.652;9.292;2023-08-21T13:04:30;34.20;99.90
73643;DHT22;61938;48.652;9.292;2023-08-21T13:06:56;34.50;99.90
73643;DHT22;61938;48.652;9.292;2023-08-21T13:09:21;34.30;99.90
73643;DHT22;61938;48.652;9.292;2023-08-21T13:11:50;34.30;99.90
73643;DHT22;61938;48.652;9.292;2023-08-21T13:14:16;34.50;99.90
73643;DHT22;61938;48.652;9.292;2023-08-21T13:16:41;34.60;99.90
73643;DHT22;61938;48.652;9.292;2023-08-21T13:19:07;34.80;99.90
73643;DHT22;61938;48.652;9.292;2023-08-21T13:21:32;34.90;99.90
73643;DHT22;61938;48.652;9.292;2023-08-21T13:23:58;35.10;99.90
73643;DHT22;61938;48.652;9.292;2023-08-21T13:26:23;34.90;99.90
73643;DHT22;61938;48.652;9.292;2023-08-21T13:28:50;34.70;99.90
73643;DHT22;61938;48.652;9.292;2023-08-21T13:31:16;34.60;99.90
73643;DHT22;61938;48.652;9.292;2023-08-21T13:33:45;34.30;99.90
73643;DHT22;61938;48.652;9.292;2023-08-21T13:36:11;34.10;99.90
73643;DHT22;61938;48.652;9.292;2023-08-21T13:38:36;34.40;99.90
73643;DHT22;61938;48.652;9.292;2023-08-21T13:41:02;34.60;98.80
73643;DHT22;61938;48.652;9.292;2023-08-21T13:43:27;34.60;99.90
73643;DHT22;61938;48.652;9.292;2023-08-21T13:45:53;34.60;99.40
73643;DHT22;61938;48.652;9.292;2023-08-21T13:48:18;34.50;99.90
73643;DHT22;61938;48.652;9.292;2023-08-21T13:50:44;34.70;98.90
73643;DHT22;61938;48.652;9.292;2023-08-21T13:53:09;34.70;99.90
73643;DHT22;61938;48.652;9.292;2023-08-21T13:55:35;34.60;99.80
73643;DHT22;61938;48.652;9.292;2023-08-21T13:58:00;34.70;99.30
73643;DHT22;61938;48.652;9.292;2023-08-21T14:00:26;34.60;99.20
73643;DHT22;61938;48.652;9.292;2023-08-21T14:02:51;34.70;98.10
73643;DHT22;61938;48.652;9.292;2023-08-21T14:05:17;34.50;98.70
73643;DHT22;61938;48.652;9.292;2023-08-21T14:07:43;34.30;97.20
73643;DHT22;61938;48.652;9.292;2023-08-21T14:10:09;34.50;98.30
73643;DHT22;61938;48.652;9.292;2023-08-21T14:12:34;34.50;96.60
73643;DHT22;61938;48.652;9.292;2023-08-21T14:15:00;34.20;95.10
73643;DHT22;61938;48.652;9.292;2023-08-21T14:17:26;33.80;96.80
73643;DHT22;61938;48.652;9.292;2023-08-21T14:19:51;33.90;98.70
73643;DHT22;61938;48.652;9.292;2023-08-21T14:22:17;33.90;98.80
73643;DHT22;61938;48.652;9.292;2023-08-21T14:24:42;33.90;98.80
73643;DHT22;61938;48.652;9.292;2023-08-21T14:27:08;33.90;99.50
73643;DHT22;61938;48.652;9.292;2023-08-21T14:29:33;33.90;99.60
73643;DHT22;61938;48.652;9.292;2023-08-21T14:31:59;33.90;99.30
73643;DHT22;61938;48.652;9.292;2023-08-21T14:34:25;33.80;97.40
73643;DHT22;61938;48.652;9.292;2023-08-21T14:36:52;33.60;99.50
73643;DHT22;61938;48.652;9.292;2023-08-21T14:39:19;33.60;98.80
73643;DHT22;61938;48.652;9.292;2023-08-21T14:41:45;33.60;99.90
73643;DHT22;61938;48.652;9.292;2023-08-21T14:44:10;33.60;98.90
73643;DHT22;61938;48.652;9.292;2023-08-21T14:46:36;33.40;98.70
73643;DHT22;61938;48.652;9.292;2023-08-21T14:49:02;33.50;98.40
73643;DHT22;61938;48.652;9.292;2023-08-21T14:51:28;33.50;99.90
73643;DHT22;61938;48.652;9.292;2023-08-21T14:53:53;33.60;99.90
73643;DHT22;61938;48.652;9.292;2023-08-21T14:56:20;33.50;99.70
73643;DHT22;61938;48.652;9.292;2023-08-21T14:58:46;33.30;99.50
73643;DHT22;61938;48.652;9.292;2023-08-21T15:01:12;33.20;98.60
73643;DHT22;61938;48.652;9.292;2023-08-21T15:03:37;33.10;99.70
73643;DHT22;61938;48.652;9.292;2023-08-21T15:06:03;33.20;99.90
73643;DHT22;61938;48.652;9.292;2023-08-21T15:08:29;33.20;99.60
73643;DHT22;61938;48.652;9.292;2023-08-21T15:10:54;33.10;99.90
73643;DHT22;61938;48.652;9.292;2023-08-21T15:13:20;33.10;99.90
73643;DHT22;61938;48.652;9.292;2023-08-21T15:15:45;33.00;99.90
73643;DHT22;61938;48.652;9.292;2023-08-21T15:18:11;33.00;99.00
73643;DHT22;61938;48.652;9.292;2023-08-21T15:20:36;32.90;99.30
73643;DHT22;61938;48.652;9.292;2023-08-21T15:23:02;32.80;99.60
73643;DHT22;61938;48.652;9.292;2023-08-21T15:25:28;32.70;99.90
73643;DHT22;61938;48.652;9.292;2023-08-21T15:27:53;32.70;99.90
73643;DHT22;61938;48.652;9.292;2023-08-21T15:30:18;32.70;99.90
73643;DHT22;61938;48.652;9.292;2023-08-21T15:32:44;32.50;99.40